Ardmore, Missouri
Current Conditions -  °F | °C
As of 1:55 PM on Tuesday 21 Oct 2014 (Local Time) from KIRK Reporting Station
Clear Clear  
Wind Chill: 64°   Ceiling: Unl
Heat Index: 64°   Visibility: 10mi
Dew Point: 46°   Wind: 8mph
Humidity: 52%   Direction: 100°E
Pressure: 30.14"   Gusts: NA
Location:  39.6493°N, 92.4492°W
Report Text: KIRK 211855Z AUTO 10007KT 10SM CLR 18/08 A3014 RMK AO2 SLP208 T01780078
Loading
Personal Weather Stations






























Interactive Weather Map New forecast layout! Learn more

10-Day Weather Forecast

Advertisements
Track Severe Weather on mobile